Time;durP1;ratioP1;P1;durP2;ratioP2;P2;SDS_P1;SDS_P2;PMS_P1;PMS_P2;Temp;Humidity;BMP_temperature;BMP_pressure;BME280_temperature;BME280_humidity;BME280_pressure;Samples;Min_cycle;Max_cycle;Signal;HPM_P1;HPM_P2
2023/12/01 00:00:45;;;;;;;38.00;22.80;;;;;;;;;;4968977;28;20248;-67
2023/12/01 00:03:13;;;;;;;37.38;22.48;;;;;;;;;;4969107;28;20219;-65
2023/12/01 00:05:41;;;;;;;41.42;24.05;;;;;;;;;;4998641;28;20202;-66
2023/12/01 00:08:09;;;;;;;39.65;23.52;;;;;;;;;;4985952;28;20213;-65
2023/12/01 00:10:37;;;;;;;37.50;22.73;;;;;;;;;;4985424;28;20734;-66
2023/12/01 00:13:06;;;;;;;34.67;22.17;;;;;;;;;;5008486;28;20202;-65
2023/12/01 00:15:35;;;;;;;39.63;23.15;;;;;;;;;;5007161;28;20214;-65
2023/12/01 00:18:04;;;;;;;45.28;26.15;;;;;;;;;;4983645;28;20215;-65
2023/12/01 00:20:32;;;;;;;39.83;22.65;;;;;;;;;;4971922;28;20207;-66
2023/12/01 00:23:00;;;;;;;43.33;24.55;;;;;;;;;;4986069;28;20225;-66
2023/12/01 00:25:28;;;;;;;61.92;30.08;;;;;;;;;;4976983;28;20730;-65
2023/12/01 00:27:58;;;;;;;40.42;23.38;;;;;;;;;;4968786;28;20662;-65
2023/12/01 00:30:28;;;;;;;42.38;23.45;;;;;;;;;;4984135;28;20208;-65
2023/12/01 00:32:58;;;;;;;40.58;22.85;;;;;;;;;;4971474;28;20187;-65
2023/12/01 00:35:26;;;;;;;40.90;23.05;;;;;;;;;;4976322;28;20284;-65
2023/12/01 00:37:54;;;;;;;37.40;23.35;;;;;;;;;;4987947;28;20218;-65
2023/12/01 00:40:35;;;;;;;40.30;24.10;;;;;;;;;;4967804;28;20725;-65
2023/12/01 00:43:06;;;;;;;38.58;22.48;;;;;;;;;;4970824;28;20249;-66
2023/12/01 00:45:34;;;;;;;43.25;24.35;;;;;;;;;;5000622;28;20239;-63
2023/12/01 00:48:04;;;;;;;44.42;25.73;;;;;;;;;;5001095;28;20231;-63
2023/12/01 00:50:32;;;;;;;37.05;22.88;;;;;;;;;;5021038;28;20222;-65
2023/12/01 00:53:00;;;;;;;41.20;23.30;;;;;;;;;;5012329;28;20238;-63
2023/12/01 00:55:29;;;;;;;39.50;24.88;;;;;;;;;;5030147;28;20222;-63
2023/12/01 00:57:57;;;;;;;42.83;23.38;;;;;;;;;;5032223;28;20214;-64
2023/12/01 01:00:25;;;;;;;36.70;20.88;;;;;;;;;;5031829;28;20218;-65
2023/12/01 01:02:53;;;;;;;36.60;20.40;;;;;;;;;;5031196;28;20253;-65
2023/12/01 01:05:23;;;;;;;39.00;23.40;;;;;;;;;;5030153;28;20218;-64
2023/12/01 01:07:51;;;;;;;40.22;21.90;;;;;;;;;;5031946;28;20233;-66
2023/12/01 01:10:20;;;;;;;44.05;23.73;;;;;;;;;;5031733;28;20209;-63
2023/12/01 01:12:48;;;;;;;43.65;24.35;;;;;;;;;;5031140;28;20697;-64
2023/12/01 01:15:16;;;;;;;35.83;22.80;;;;;;;;;;5031939;28;20230;-64
2023/12/01 01:17:44;;;;;;;44.10;22.73;;;;;;;;;;5032026;28;20234;-64
2023/12/01 01:20:13;;;;;;;37.13;23.40;;;;;;;;;;5032354;28;20265;-66
2023/12/01 01:22:43;;;;;;;36.53;21.83;;;;;;;;;;5031865;28;20254;-68
2023/12/01 01:25:11;;;;;;;35.95;22.30;;;;;;;;;;5030979;28;20233;-68
2023/12/01 01:27:39;;;;;;;41.17;24.00;;;;;;;;;;5034547;28;20217;-63
2023/12/01 01:30:08;;;;;;;37.35;22.23;;;;;;;;;;5035267;28;20218;-63
2023/12/01 01:32:37;;;;;;;38.33;22.30;;;;;;;;;;5035211;28;20241;-64
2023/12/01 01:35:06;;;;;;;33.75;20.60;;;;;;;;;;5017773;28;20255;-63
2023/12/01 01:37:34;;;;;;;39.88;22.55;;;;;;;;;;5035275;28;20230;-64
2023/12/01 01:40:05;;;;;;;37.10;22.33;;;;;;;;;;5015974;28;20227;-63
2023/12/01 01:42:33;;;;;;;38.45;21.90;;;;;;;;;;5015456;28;20277;-67
2023/12/01 01:45:02;;;;;;;36.65;22.30;;;;;;;;;;5015012;28;20346;-63
2023/12/01 01:47:31;;;;;;;36.83;20.95;;;;;;;;;;5015239;28;20187;-65
2023/12/01 01:49:59;;;;;;;40.28;22.25;;;;;;;;;;5014966;28;20214;-64
2023/12/01 01:52:28;;;;;;;34.65;22.15;;;;;;;;;;5014815;28;20216;-64
2023/12/01 01:54:56;;;;;;;36.28;21.33;;;;;;;;;;5015071;28;20221;-63
2023/12/01 01:57:26;;;;;;;34.70;20.98;;;;;;;;;;5014724;28;20207;-62
2023/12/01 01:59:54;;;;;;;50.33;22.25;;;;;;;;;;5014338;28;20205;-64
2023/12/01 02:02:23;;;;;;;38.17;22.75;;;;;;;;;;4992259;28;20346;-68
2023/12/01 02:04:53;;;;;;;33.80;20.30;;;;;;;;;;4989986;28;20221;-68
2023/12/01 02:07:30;;;;;;;34.70;21.73;;;;;;;;;;4991440;28;20211;-68
2023/12/01 02:09:58;;;;;;;43.45;21.70;;;;;;;;;;4991107;28;20191;-68
2023/12/01 02:12:28;;;;;;;37.10;22.40;;;;;;;;;;4992146;28;20255;-67
2023/12/01 02:14:56;;;;;;;38.58;23.48;;;;;;;;;;4993025;28;20207;-67
2023/12/01 02:17:24;;;;;;;35.40;21.48;;;;;;;;;;4992260;28;20211;-68
2023/12/01 02:19:52;;;;;;;38.58;22.00;;;;;;;;;;4992039;28;20661;-68
2023/12/01 02:22:22;;;;;;;38.35;20.65;;;;;;;;;;4991635;28;20211;-67
2023/12/01 02:24:50;;;;;;;34.50;21.90;;;;;;;;;;4994111;28;20244;-68
2023/12/01 02:27:18;;;;;;;40.08;22.88;;;;;;;;;;5033762;28;20213;-67
2023/12/01 02:29:46;;;;;;;37.10;20.63;;;;;;;;;;4991601;28;20548;-67
2023/12/01 02:32:14;;;;;;;35.30;22.00;;;;;;;;;;4991915;28;20214;-67
2023/12/01 02:34:45;;;;;;;35.33;21.25;;;;;;;;;;4990933;28;20210;-67
2023/12/01 02:37:13;;;;;;;37.13;22.83;;;;;;;;;;4991232;28;20191;-67
2023/12/01 02:39:42;;;;;;;33.08;21.30;;;;;;;;;;4991874;28;20207;-67
2023/12/01 02:42:10;;;;;;;38.40;22.80;;;;;;;;;;4991456;28;20256;-67
2023/12/01 02:44:39;;;;;;;33.45;20.77;;;;;;;;;;4979833;28;20717;-68
2023/12/01 02:47:08;;;;;;;35.88;21.13;;;;;;;;;;4972308;28;20204;-68
2023/12/01 02:49:36;;;;;;;33.92;22.77;;;;;;;;;;4971327;28;20207;-68
2023/12/01 02:52:05;;;;;;;36.28;20.48;;;;;;;;;;4971947;28;20674;-67
2023/12/01 02:54:33;;;;;;;32.17;20.67;;;;;;;;;;4987468;28;20208;-67
2023/12/01 02:57:03;;;;;;;37.83;20.60;;;;;;;;;;4970729;28;20244;-68
2023/12/01 02:59:31;;;;;;;34.67;21.25;;;;;;;;;;4972093;28;20199;-68
2023/12/01 03:02:00;;;;;;;35.85;21.10;;;;;;;;;;4977664;28;20217;-68
2023/12/01 03:04:28;;;;;;;32.97;20.45;;;;;;;;;;4974746;28;20582;-68
2023/12/01 03:06:56;;;;;;;38.00;21.65;;;;;;;;;;4984780;28;20218;-68
2023/12/01 03:09:24;;;;;;;33.08;20.50;;;;;;;;;;4986140;28;20214;-68
2023/12/01 03:11:53;;;;;;;33.55;20.58;;;;;;;;;;4991462;28;20221;-68
2023/12/01 03:14:23;;;;;;;33.78;21.65;;;;;;;;;;4991207;28;20267;-68
2023/12/01 03:16:51;;;;;;;34.25;21.23;;;;;;;;;;4989682;28;20210;-66
2023/12/01 03:19:19;;;;;;;35.70;20.77;;;;;;;;;;4991495;28;20211;-67
2023/12/01 03:21:48;;;;;;;33.08;20.75;;;;;;;;;;4989464;28;20217;-67
2023/12/01 03:24:16;;;;;;;39.47;22.27;;;;;;;;;;4989803;28;20226;-67
2023/12/01 03:26:44;;;;;;;34.13;20.08;;;;;;;;;;4990792;28;20206;-67
2023/12/01 03:29:12;;;;;;;34.30;21.35;;;;;;;;;;4991598;28;20210;-66
2023/12/01 03:31:42;;;;;;;36.90;21.65;;;;;;;;;;4990866;28;20249;-66
2023/12/01 03:34:10;;;;;;;44.00;24.30;;;;;;;;;;4991121;28;20201;-68
2023/12/01 03:36:38;;;;;;;41.88;22.52;;;;;;;;;;4990935;28;20267;-67
2023/12/01 03:39:07;;;;;;;36.08;21.13;;;;;;;;;;4987235;28;20633;-67
2023/12/01 03:41:35;;;;;;;40.38;23.77;;;;;;;;;;4970779;28;20784;-67
2023/12/01 03:44:03;;;;;;;38.78;22.75;;;;;;;;;;4970815;28;20235;-67
2023/12/01 03:46:32;;;;;;;35.70;21.75;;;;;;;;;;4988372;28;20214;-67
2023/12/01 03:49:01;;;;;;;34.60;22.08;;;;;;;;;;4979337;28;20215;-67
2023/12/01 03:51:30;;;;;;;40.08;22.20;;;;;;;;;;4971577;28;20207;-68
2023/12/01 03:53:57;;;;;;;35.40;21.95;;;;;;;;;;4971993;28;20203;-68
2023/12/01 03:56:26;;;;;;;38.15;22.05;;;;;;;;;;4976515;28;20198;-68
2023/12/01 03:58:55;;;;;;;40.70;23.88;;;;;;;;;;4991140;28;20228;-67
2023/12/01 04:01:23;;;;;;;40.38;24.63;;;;;;;;;;4989125;28;20207;-67
2023/12/01 04:03:51;;;;;;;42.78;23.45;;;;;;;;;;4988858;28;20227;-67
2023/12/01 04:06:21;;;;;;;38.80;23.95;;;;;;;;;;4988331;28;20209;-67
2023/12/01 04:08:53;;;;;;;42.05;23.90;;;;;;;;;;4990890;28;20607;-67
2023/12/01 04:11:21;;;;;;;37.42;23.08;;;;;;;;;;4990975;28;20190;-67
2023/12/01 04:13:50;;;;;;;37.97;22.70;;;;;;;;;;4990221;28;20207;-67
2023/12/01 04:16:18;;;;;;;40.03;24.30;;;;;;;;;;4990461;28;20236;-68
2023/12/01 04:18:47;;;;;;;41.92;25.08;;;;;;;;;;4990641;28;20651;-67
2023/12/01 04:21:15;;;;;;;40.75;26.95;;;;;;;;;;4989197;28;20209;-67
2023/12/01 04:23:45;;;;;;;37.75;22.90;;;;;;;;;;4990556;28;20222;-67
2023/12/01 04:26:13;;;;;;;39.67;24.23;;;;;;;;;;4990513;28;20211;-67
2023/12/01 04:28:41;;;;;;;41.20;24.08;;;;;;;;;;4990466;28;20232;-66
2023/12/01 04:31:09;;;;;;;42.53;24.48;;;;;;;;;;4991019;28;20570;-67
2023/12/01 04:33:38;;;;;;;43.13;25.50;;;;;;;;;;4990694;28;20839;-67
2023/12/01 04:36:06;;;;;;;44.28;25.30;;;;;;;;;;4989558;28;20213;-67
2023/12/01 04:38:35;;;;;;;44.33;25.77;;;;;;;;;;4990384;28;20209;-67
2023/12/01 04:41:09;;;;;;;44.50;25.58;;;;;;;;;;4987120;28;20709;-68
2023/12/01 04:43:39;;;;;;;49.08;26.33;;;;;;;;;;4989771;28;20226;-67
2023/12/01 04:46:08;;;;;;;44.17;26.50;;;;;;;;;;4983385;28;20207;-67
2023/12/01 04:48:36;;;;;;;45.83;24.38;;;;;;;;;;4971110;28;20207;-67
2023/12/01 04:51:05;;;;;;;44.03;24.00;;;;;;;;;;4971092;28;20216;-68
2023/12/01 04:53:33;;;;;;;50.97;26.55;;;;;;;;;;4988977;28;20198;-68
2023/12/01 04:56:01;;;;;;;45.30;26.15;;;;;;;;;;4990353;28;20215;-67
2023/12/01 04:58:31;;;;;;;46.67;25.00;;;;;;;;;;4990264;28;20221;-67
2023/12/01 05:00:59;;;;;;;48.90;25.48;;;;;;;;;;4990299;28;20637;-67
2023/12/01 05:03:28;;;;;;;50.45;24.80;;;;;;;;;;4992097;28;20271;-68
2023/12/01 05:05:58;;;;;;;48.78;26.08;;;;;;;;;;4992767;28;20207;-68
2023/12/01 05:08:27;;;;;;;50.47;25.58;;;;;;;;;;4994190;28;20195;-67
2023/12/01 05:10:56;;;;;;;50.53;25.85;;;;;;;;;;4984506;28;20207;-67
2023/12/01 05:13:24;;;;;;;46.78;24.42;;;;;;;;;;4991795;28;20202;-67
2023/12/01 05:15:54;;;;;;;54.03;25.63;;;;;;;;;;4998704;28;20253;-66
2023/12/01 05:18:22;;;;;;;51.33;26.05;;;;;;;;;;5009781;28;20234;-66
2023/12/01 05:20:52;;;;;;;49.50;25.27;;;;;;;;;;5010071;28;20234;-66
2023/12/01 05:23:20;;;;;;;59.45;29.45;;;;;;;;;;5008952;28;20309;-66
2023/12/01 05:25:50;;;;;;;52.40;28.88;;;;;;;;;;5009211;28;20242;-66
2023/12/01 05:28:18;;;;;;;55.28;27.85;;;;;;;;;;5009251;28;20256;-66
2023/12/01 05:30:47;;;;;;;55.35;28.10;;;;;;;;;;5010408;28;20246;-66
2023/12/01 05:33:16;;;;;;;59.72;28.90;;;;;;;;;;5010807;28;20222;-66
2023/12/01 05:35:45;;;;;;;56.78;26.70;;;;;;;;;;5009989;28;20238;-66
2023/12/01 05:38:15;;;;;;;59.05;27.77;;;;;;;;;;5010085;28;20681;-66
2023/12/01 05:40:43;;;;;;;52.20;23.52;;;;;;;;;;5004525;28;20226;-66
2023/12/01 05:43:12;;;;;;;57.67;27.38;;;;;;;;;;5009162;28;20210;-67
2023/12/01 05:45:41;;;;;;;55.42;27.55;;;;;;;;;;4992439;28;20258;-66
2023/12/01 05:48:09;;;;;;;56.22;27.08;;;;;;;;;;5009160;28;20238;-66
2023/12/01 05:50:42;;;;;;;52.88;27.05;;;;;;;;;;5000632;28;20250;-66
2023/12/01 05:53:11;;;;;;;59.70;28.27;;;;;;;;;;5004514;28;20260;-66
2023/12/01 05:55:39;;;;;;;54.90;26.77;;;;;;;;;;5008884;28;20195;-66
2023/12/01 05:58:09;;;;;;;62.10;31.35;;;;;;;;;;4998847;28;20573;-66
2023/12/01 06:00:37;;;;;;;60.25;31.58;;;;;;;;;;4989918;28;20326;-66
2023/12/01 06:03:06;;;;;;;61.50;27.35;;;;;;;;;;4988973;28;20208;-66
2023/12/01 06:05:35;;;;;;;66.28;30.77;;;;;;;;;;4988685;28;20246;-66
2023/12/01 06:08:05;;;;;;;51.85;28.25;;;;;;;;;;4988544;28;20211;-66
2023/12/01 06:10:33;;;;;;;61.10;27.95;;;;;;;;;;4988969;28;20188;-66
2023/12/01 06:13:01;;;;;;;53.22;28.40;;;;;;;;;;5095911;28;20222;-66
2023/12/01 06:15:30;;;;;;;74.05;31.02;;;;;;;;;;5011794;28;20194;-66
2023/12/01 06:17:59;;;;;;;62.97;28.60;;;;;;;;;;5012050;28;20226;-66
2023/12/01 06:20:29;;;;;;;64.60;27.85;;;;;;;;;;5011470;28;20219;-66
2023/12/01 06:22:58;;;;;;;70.53;30.50;;;;;;;;;;4995986;28;20201;-65
2023/12/01 06:25:28;;;;;;;59.88;28.45;;;;;;;;;;4998636;28;20211;-67
2023/12/01 06:27:57;;;;;;;68.75;30.70;;;;;;;;;;4998698;28;20191;-65
2023/12/01 06:30:25;;;;;;;54.83;28.77;;;;;;;;;;4998309;28;20233;-65
2023/12/01 06:32:54;;;;;;;64.32;28.90;;;;;;;;;;5019002;28;20194;-65
2023/12/01 06:35:22;;;;;;;69.57;29.95;;;;;;;;;;5008665;28;20191;-65
2023/12/01 06:37:50;;;;;;;71.30;30.58;;;;;;;;;;5007054;28;20203;-65
2023/12/01 06:40:20;;;;;;;66.68;29.00;;;;;;;;;;5006826;28;20229;-65
2023/12/01 06:42:50;;;;;;;64.68;29.65;;;;;;;;;;4997202;28;20300;-66
2023/12/01 06:45:19;;;;;;;73.20;32.17;;;;;;;;;;4999685;28;20248;-65
2023/12/01 06:47:48;;;;;;;63.35;30.05;;;;;;;;;;5006479;28;20607;-65
2023/12/01 06:50:16;;;;;;;62.90;29.58;;;;;;;;;;4987292;28;20666;-65
2023/12/01 06:52:45;;;;;;;67.30;31.80;;;;;;;;;;4993982;28;20561;-65
2023/12/01 06:55:13;;;;;;;72.25;33.25;;;;;;;;;;4985792;28;21169;-65
2023/12/01 06:57:42;;;;;;;66.53;30.60;;;;;;;;;;4994226;28;20371;-69
2023/12/01 07:00:28;;;;;;;66.25;30.70;;;;;;;;;;5001688;28;20286;-65
2023/12/01 07:02:59;;;;;;;72.85;29.95;;;;;;;;;;5001204;28;20273;-65
2023/12/01 07:05:28;;;;;;;73.55;30.63;;;;;;;;;;4996576;28;20278;-64
2023/12/01 07:07:57;;;;;;;66.40;27.20;;;;;;;;;;4993433;28;20207;-64
2023/12/01 07:10:25;;;;;;;59.13;27.20;;;;;;;;;;4994814;28;20925;-64
2023/12/01 07:12:54;;;;;;;60.75;28.15;;;;;;;;;;4981615;28;20283;-65
2023/12/01 07:15:27;;;;;;;64.50;27.75;;;;;;;;;;4978219;28;20305;-65
2023/12/01 07:17:56;;;;;;;58.35;28.55;;;;;;;;;;4978008;28;20271;-67
2023/12/01 07:20:25;;;;;;;59.78;28.25;;;;;;;;;;4975194;28;20274;-65
2023/12/01 07:22:54;;;;;;;60.05;27.92;;;;;;;;;;4976291;28;20263;-66
2023/12/01 07:25:23;;;;;;;62.67;29.23;;;;;;;;;;4974776;28;20229;-66
2023/12/01 07:27:52;;;;;;;62.13;26.80;;;;;;;;;;4980812;28;20257;-66
2023/12/01 07:30:21;;;;;;;59.88;26.88;;;;;;;;;;4991660;28;20246;-65
2023/12/01 07:32:51;;;;;;;53.25;25.30;;;;;;;;;;4994374;28;20269;-66
2023/12/01 07:35:19;;;;;;;47.85;24.00;;;;;;;;;;4999874;28;20251;-66
2023/12/01 07:37:48;;;;;;;41.63;22.58;;;;;;;;;;4998867;28;20286;-66
2023/12/01 07:40:19;;;;;;;46.15;25.05;;;;;;;;;;4995674;28;20317;-65
2023/12/01 07:42:47;;;;;;;43.60;22.10;;;;;;;;;;5008373;28;20599;-66
2023/12/01 07:45:17;;;;;;;44.53;23.77;;;;;;;;;;4985127;28;20284;-66
2023/12/01 07:47:45;;;;;;;46.08;22.27;;;;;;;;;;4973503;28;20203;-65
2023/12/01 07:50:15;;;;;;;38.63;21.30;;;;;;;;;;4972720;28;20203;-66
2023/12/01 07:52:43;;;;;;;39.53;22.05;;;;;;;;;;4976595;28;20243;-66
2023/12/01 07:55:11;;;;;;;37.85;22.35;;;;;;;;;;4981113;28;20290;-66
2023/12/01 07:57:40;;;;;;;39.33;21.10;;;;;;;;;;4984011;28;20267;-66
2023/12/01 08:00:14;;;;;;;34.72;20.00;;;;;;;;;;4984595;28;20619;-66
2023/12/01 08:02:43;;;;;;;30.35;19.05;;;;;;;;;;4984305;28;20274;-66
2023/12/01 08:05:14;;;;;;;36.28;20.40;;;;;;;;;;5001795;28;20296;-68
2023/12/01 08:07:44;;;;;;;32.97;20.27;;;;;;;;;;5001258;28;20277;-66
2023/12/01 08:10:15;;;;;;;34.42;20.55;;;;;;;;;;4992492;28;20294;-66
2023/12/01 08:12:43;;;;;;;38.17;20.42;;;;;;;;;;4972125;28;20202;-65
2023/12/01 08:15:11;;;;;;;37.40;20.27;;;;;;;;;;4987731;28;20270;-66
2023/12/01 08:17:40;;;;;;;30.40;18.70;;;;;;;;;;4995246;28;20285;-66
2023/12/01 08:20:09;;;;;;;32.35;17.95;;;;;;;;;;4996070;28;20281;-66
2023/12/01 08:22:38;;;;;;;33.53;18.15;;;;;;;;;;5001212;28;20266;-66
2023/12/01 08:25:09;;;;;;;34.40;19.02;;;;;;;;;;5004318;28;20242;-65
2023/12/01 08:27:39;;;;;;;31.90;18.95;;;;;;;;;;5016724;28;20286;-66
2023/12/01 08:30:08;;;;;;;29.00;16.50;;;;;;;;;;5020652;28;20261;-66
2023/12/01 08:32:37;;;;;;;33.95;18.40;;;;;;;;;;5020817;28;20274;-66
2023/12/01 08:35:06;;;;;;;33.17;18.30;;;;;;;;;;5018625;28;20281;-65
2023/12/01 08:37:34;;;;;;;30.92;17.50;;;;;;;;;;5022186;28;20692;-67
2023/12/01 08:40:04;;;;;;;25.55;15.93;;;;;;;;;;5023267;28;20584;-66
2023/12/01 08:42:34;;;;;;;26.40;16.85;;;;;;;;;;5023684;28;20261;-66
2023/12/01 08:45:03;;;;;;;28.58;16.65;;;;;;;;;;5010601;28;20736;-66
2023/12/01 08:47:32;;;;;;;28.63;16.00;;;;;;;;;;5007412;28;20253;-66
2023/12/01 08:50:00;;;;;;;26.10;16.90;;;;;;;;;;5014526;28;20269;-66
2023/12/01 08:52:28;;;;;;;30.05;16.67;;;;;;;;;;5020320;28;20293;-65
2023/12/01 08:54:58;;;;;;;29.63;16.83;;;;;;;;;;5002585;28;20260;-66
2023/12/01 08:57:27;;;;;;;26.92;16.13;;;;;;;;;;5005209;28;20269;-66
2023/12/01 08:59:56;;;;;;;26.10;15.60;;;;;;;;;;5008856;28;20229;-66
2023/12/01 09:02:24;;;;;;;32.50;19.55;;;;;;;;;;4991152;28;20208;-66
2023/12/01 09:04:52;;;;;;;31.45;16.23;;;;;;;;;;4984327;28;20288;-68
2023/12/01 09:07:21;;;;;;;30.15;18.85;;;;;;;;;;5016566;28;20229;-67
2023/12/01 09:09:49;;;;;;;31.20;19.55;;;;;;;;;;5002415;28;20255;-66
2023/12/01 09:12:18;;;;;;;30.15;19.15;;;;;;;;;;4994293;28;20211;-67
2023/12/01 09:14:46;;;;;;;33.40;17.58;;;;;;;;;;4991956;28;20207;-67
2023/12/01 09:17:15;;;;;;;30.55;17.08;;;;;;;;;;4995498;28;20233;-67
2023/12/01 09:19:43;;;;;;;30.30;17.00;;;;;;;;;;5010935;28;20672;-67
2023/12/01 09:22:11;;;;;;;24.30;13.80;;;;;;;;;;5005432;28;20251;-68
2023/12/01 09:24:39;;;;;;;29.92;16.40;;;;;;;;;;4991794;28;20195;-67
2023/12/01 09:27:07;;;;;;;28.10;16.42;;;;;;;;;;4994407;28;20297;-64
2023/12/01 09:29:35;;;;;;;28.73;17.00;;;;;;;;;;5022026;28;20202;-67
2023/12/01 09:32:03;;;;;;;33.00;18.45;;;;;;;;;;5018033;28;20210;-64
2023/12/01 09:34:32;;;;;;;27.42;16.27;;;;;;;;;;5016634;28;20777;-67
2023/12/01 09:37:00;;;;;;;24.10;16.20;;;;;;;;;;5016272;28;20199;-64
2023/12/01 09:39:29;;;;;;;27.00;15.50;;;;;;;;;;5015121;28;20191;-65
2023/12/01 09:41:57;;;;;;;28.95;17.27;;;;;;;;;;5006708;28;20317;-64
2023/12/01 09:44:26;;;;;;;24.23;15.73;;;;;;;;;;5007372;28;20234;-65
2023/12/01 09:46:54;;;;;;;29.60;17.02;;;;;;;;;;5011364;28;20741;-65
2023/12/01 09:49:22;;;;;;;26.40;16.88;;;;;;;;;;4997239;28;20206;-65
2023/12/01 09:51:52;;;;;;;24.83;16.73;;;;;;;;;;5011769;28;20190;-68
2023/12/01 09:54:20;;;;;;;23.88;15.15;;;;;;;;;;5015589;28;20178;-65
2023/12/01 09:56:48;;;;;;;27.27;17.30;;;;;;;;;;5014577;28;20214;-67
2023/12/01 09:59:16;;;;;;;33.08;17.70;;;;;;;;;;5107396;28;20214;-68
2023/12/01 10:01:44;;;;;;;28.98;17.52;;;;;;;;;;5117466;28;20199;-66
2023/12/01 10:04:13;;;;;;;25.83;14.85;;;;;;;;;;5118230;28;20222;-69
2023/12/01 10:06:41;;;;;;;33.42;18.40;;;;;;;;;;5049576;28;20231;-69
2023/12/01 10:09:12;;;;;;;32.17;17.95;;;;;;;;;;5028719;28;20237;-64
2023/12/01 10:11:40;;;;;;;30.85;17.30;;;;;;;;;;5016777;28;20226;-68
2023/12/01 10:14:09;;;;;;;30.30;16.58;;;;;;;;;;5011319;28;20257;-65
2023/12/01 10:16:38;;;;;;;32.33;16.13;;;;;;;;;;4994135;28;20230;-67
2023/12/01 10:19:07;;;;;;;29.75;17.98;;;;;;;;;;4993303;28;20269;-66
2023/12/01 10:21:45;;;;;;;26.90;16.35;;;;;;;;;;4993918;28;20227;-66
2023/12/01 10:24:16;;;;;;;33.03;18.17;;;;;;;;;;4994613;28;20206;-64
2023/12/01 10:26:44;;;;;;;29.33;16.73;;;;;;;;;;4995282;28;20250;-65
2023/12/01 10:29:28;;;;;;;28.65;16.90;;;;;;;;;;5015293;28;20233;-67
2023/12/01 10:31:57;;;;;;;25.70;16.70;;;;;;;;;;5033028;28;20201;-65
2023/12/01 10:34:25;;;;;;;29.95;17.58;;;;;;;;;;5031473;28;20226;-65
2023/12/01 10:36:54;;;;;;;36.65;18.45;;;;;;;;;;5032785;28;20217;-65
2023/12/01 10:39:25;;;;;;;33.85;15.98;;;;;;;;;;5031977;28;20226;-64
2023/12/01 10:41:54;;;;;;;27.75;17.00;;;;;;;;;;5031099;28;20253;-64
2023/12/01 10:44:23;;;;;;;25.73;16.33;;;;;;;;;;5027922;28;20250;-66
2023/12/01 10:46:52;;;;;;;27.02;17.05;;;;;;;;;;5006372;28;20257;-68
2023/12/01 10:49:21;;;;;;;22.98;15.77;;;;;;;;;;5006608;28;20192;-65
2023/12/01 10:51:52;;;;;;;29.15;18.10;;;;;;;;;;5022851;28;20218;-67
2023/12/01 10:54:24;;;;;;;27.63;16.63;;;;;;;;;;5033548;28;20198;-65
2023/12/01 10:56:58;;;;;;;28.20;15.57;;;;;;;;;;5034062;28;20217;-64
2023/12/01 10:59:27;;;;;;;31.23;17.38;;;;;;;;;;5033463;28;20205;-65
2023/12/01 11:01:56;;;;;;;30.27;17.60;;;;;;;;;;5034872;28;20202;-66
2023/12/01 11:04:26;;;;;;;30.88;17.33;;;;;;;;;;5032964;28;20249;-68
2023/12/01 11:07:02;;;;;;;25.55;16.20;;;;;;;;;;5011434;28;20254;-65
2023/12/01 11:09:37;;;;;;;29.30;17.70;;;;;;;;;;5014769;28;20206;-65
2023/12/01 11:12:09;;;;;;;28.60;16.77;;;;;;;;;;5013560;28;20218;-65
2023/12/01 11:14:39;;;;;;;33.42;18.85;;;;;;;;;;5030034;28;20221;-65
2023/12/01 11:17:07;;;;;;;26.33;15.88;;;;;;;;;;5022293;28;20221;-65
2023/12/01 11:19:39;;;;;;;34.45;16.95;;;;;;;;;;5012489;28;20234;-64
2023/12/01 11:22:22;;;;;;;29.02;16.83;;;;;;;;;;5011198;28;20198;-64
2023/12/01 11:24:50;;;;;;;29.42;17.70;;;;;;;;;;5012212;28;20248;-64
2023/12/01 11:27:20;;;;;;;29.73;20.75;;;;;;;;;;5003591;28;20801;-66
2023/12/01 11:30:06;;;;;;;27.65;17.67;;;;;;;;;;4994271;28;20238;-65
2023/12/01 11:32:35;;;;;;;30.48;20.08;;;;;;;;;;4994524;28;20206;-66
2023/12/01 11:35:07;;;;;;;26.77;16.10;;;;;;;;;;4995323;28;20313;-68
2023/12/01 11:37:53;;;;;;;22.80;14.90;;;;;;;;;;5030782;28;20253;-67
2023/12/01 11:40:22;;;;;;;28.02;17.02;;;;;;;;;;5031886;28;20272;-66
2023/12/01 11:42:52;;;;;;;32.65;19.30;;;;;;;;;;5032346;28;20214;-64
2023/12/01 11:45:36;;;;;;;29.40;17.38;;;;;;;;;;5008686;28;20258;-63
2023/12/01 11:48:08;;;;;;;25.58;14.85;;;;;;;;;;5011231;28;20218;-63
2023/12/01 11:50:40;;;;;;;26.15;15.32;;;;;;;;;;5110801;28;20280;-65
2023/12/01 11:53:13;;;;;;;30.88;17.50;;;;;;;;;;5057668;28;20217;-63
2023/12/01 11:55:42;;;;;;;33.05;23.42;;;;;;;;;;5011095;28;20775;-66
2023/12/01 11:58:18;;;;;;;35.85;19.58;;;;;;;;;;5008488;28;20214;-68
2023/12/01 12:00:47;;;;;;;32.92;21.25;;;;;;;;;;4997883;28;20240;-67
2023/12/01 12:03:28;;;;;;;31.77;17.50;;;;;;;;;;5010674;28;20193;-66
2023/12/01 12:05:56;;;;;;;34.53;19.83;;;;;;;;;;4993980;28;20199;-67
2023/12/01 12:08:26;;;;;;;36.72;19.00;;;;;;;;;;5011653;28;20226;-64
2023/12/01 12:10:54;;;;;;;31.27;18.20;;;;;;;;;;4997968;28;20210;-63
2023/12/01 12:13:24;;;;;;;34.83;18.20;;;;;;;;;;5028584;28;20191;-63
2023/12/01 12:15:52;;;;;;;39.83;20.75;;;;;;;;;;5014441;28;20206;-67
2023/12/01 12:18:24;;;;;;;35.65;18.95;;;;;;;;;;4999892;28;20193;-66
2023/12/01 12:20:52;;;;;;;32.00;18.60;;;;;;;;;;4999238;28;20219;-62
2023/12/01 12:23:20;;;;;;;35.55;19.20;;;;;;;;;;5002344;28;20190;-66
2023/12/01 12:25:50;;;;;;;31.90;17.88;;;;;;;;;;5002407;28;20245;-65
2023/12/01 12:28:19;;;;;;;31.52;18.35;;;;;;;;;;5008472;28;20246;-64
2023/12/01 12:30:50;;;;;;;40.33;20.23;;;;;;;;;;5002899;28;20190;-63
2023/12/01 12:33:18;;;;;;;30.17;17.48;;;;;;;;;;5000460;28;20183;-65
2023/12/01 12:35:46;;;;;;;32.40;19.10;;;;;;;;;;4996326;28;20223;-62
2023/12/01 12:38:15;;;;;;;30.95;18.45;;;;;;;;;;5002622;28;20198;-65
2023/12/01 12:40:43;;;;;;;32.30;18.70;;;;;;;;;;5008595;28;20231;-68
2023/12/01 12:43:11;;;;;;;42.10;17.85;;;;;;;;;;5002099;28;20209;-67
2023/12/01 12:45:39;;;;;;;32.42;19.75;;;;;;;;;;4996030;28;20234;-65
2023/12/01 12:48:12;;;;;;;34.20;18.00;;;;;;;;;;5011072;28;20230;-66
2023/12/01 12:50:41;;;;;;;45.17;17.50;;;;;;;;;;5005221;28;20196;-65
2023/12/01 12:53:09;;;;;;;29.45;18.88;;;;;;;;;;5001835;28;20210;-64
2023/12/01 12:55:37;;;;;;;34.65;19.42;;;;;;;;;;5005849;28;20210;-62
2023/12/01 12:58:05;;;;;;;35.22;21.63;;;;;;;;;;4993090;28;20204;-63
2023/12/01 13:00:33;;;;;;;29.08;17.10;;;;;;;;;;4992542;28;20223;-63
2023/12/01 13:03:01;;;;;;;31.83;18.17;;;;;;;;;;5017351;28;20252;-64
2023/12/01 13:05:31;;;;;;;35.05;19.88;;;;;;;;;;5029828;28;20248;-63
2023/12/01 13:07:59;;;;;;;31.20;19.27;;;;;;;;;;5012933;28;20222;-63
2023/12/01 13:10:28;;;;;;;31.63;20.30;;;;;;;;;;5014527;28;20210;-64
2023/12/01 13:12:56;;;;;;;33.30;19.95;;;;;;;;;;5013291;28;20210;-63
2023/12/01 13:15:24;;;;;;;29.85;20.10;;;;;;;;;;5011744;28;20191;-63
2023/12/01 13:17:53;;;;;;;30.75;20.38;;;;;;;;;;5007161;28;20238;-63
2023/12/01 13:20:21;;;;;;;31.27;19.70;;;;;;;;;;4992939;28;20231;-63
2023/12/01 13:22:53;;;;;;;31.95;19.40;;;;;;;;;;4994624;28;20265;-63
2023/12/01 13:25:22;;;;;;;29.65;19.38;;;;;;;;;;5015045;28;20231;-63
2023/12/01 13:27:50;;;;;;;32.28;18.55;;;;;;;;;;5023803;28;20238;-65
2023/12/01 13:30:18;;;;;;;36.20;20.52;;;;;;;;;;5035024;28;20225;-62
2023/12/01 13:32:46;;;;;;;33.00;20.08;;;;;;;;;;5022044;28;20227;-63
2023/12/01 13:35:14;;;;;;;30.83;19.98;;;;;;;;;;5013045;28;20781;-66
2023/12/01 13:37:43;;;;;;;29.27;20.10;;;;;;;;;;5007666;28;20211;-64
2023/12/01 13:40:12;;;;;;;30.52;19.73;;;;;;;;;;5005934;28;20221;-66
2023/12/01 13:42:41;;;;;;;34.97;21.00;;;;;;;;;;5000821;28;20226;-64
2023/12/01 13:45:09;;;;;;;37.95;21.27;;;;;;;;;;5000988;28;20250;-62
2023/12/01 13:47:40;;;;;;;30.48;19.73;;;;;;;;;;4999053;28;20235;-63
2023/12/01 13:50:08;;;;;;;42.90;21.05;;;;;;;;;;5007365;28;20348;-63
2023/12/01 13:52:37;;;;;;;38.22;19.92;;;;;;;;;;5000557;28;20227;-63
2023/12/01 13:55:06;;;;;;;31.20;19.50;;;;;;;;;;4995261;28;20238;-63
2023/12/01 13:57:39;;;;;;;34.38;19.83;;;;;;;;;;5013839;28;20238;-63
2023/12/01 14:00:09;;;;;;;37.97;20.65;;;;;;;;;;5013737;28;20220;-63
2023/12/01 14:02:40;;;;;;;38.60;21.92;;;;;;;;;;4995120;28;20204;-63
2023/12/01 14:05:09;;;;;;;41.85;21.52;;;;;;;;;;4998181;28;20235;-66
2023/12/01 14:07:38;;;;;;;39.00;20.83;;;;;;;;;;4999874;28;20192;-62
2023/12/01 14:10:08;;;;;;;41.28;22.48;;;;;;;;;;5009147;28;20202;-62
2023/12/01 14:12:37;;;;;;;35.90;21.75;;;;;;;;;;5016557;28;20232;-64
2023/12/01 14:15:06;;;;;;;36.53;20.83;;;;;;;;;;5016531;28;20627;-61
2023/12/01 14:17:35;;;;;;;36.28;22.38;;;;;;;;;;5015050;28;20230;-65
2023/12/01 14:20:03;;;;;;;40.10;20.27;;;;;;;;;;4994228;28;20320;-63
2023/12/01 14:22:32;;;;;;;39.85;21.98;;;;;;;;;;4995448;28;20238;-64
2023/12/01 14:25:01;;;;;;;36.97;21.20;;;;;;;;;;4992320;28;20312;-64
2023/12/01 14:27:29;;;;;;;46.33;21.90;;;;;;;;;;4993020;28;20300;-64